sensor_id;sensor_type;location;lat;lon;timestamp;temperature;humidity
480;DHT22;226;48.606;9.096;2022-09-19T00:01:08;9.30;70.00
480;DHT22;226;48.606;9.096;2022-09-19T00:03:41;9.20;73.30
480;DHT22;226;48.606;9.096;2022-09-19T00:06:11;10.00;73.70
480;DHT22;226;48.606;9.096;2022-09-19T00:08:41;8.80;75.20
480;DHT22;226;48.606;9.096;2022-09-19T00:11:10;8.80;77.20
480;DHT22;226;48.606;9.096;2022-09-19T00:13:40;9.60;77.40
480;DHT22;226;48.606;9.096;2022-09-19T00:16:11;8.80;80.70
480;DHT22;226;48.606;9.096;2022-09-19T00:18:41;10.10;82.20
480;DHT22;226;48.606;9.096;2022-09-19T00:21:08;8.90;76.30
480;DHT22;226;48.606;9.096;2022-09-19T00:23:36;8.90;76.60
480;DHT22;226;48.606;9.096;2022-09-19T00:26:22;8.90;73.80
480;DHT22;226;48.606;9.096;2022-09-19T00:28:50;9.20;78.10
480;DHT22;226;48.606;9.096;2022-09-19T00:31:19;9.10;78.40
480;DHT22;226;48.606;9.096;2022-09-19T00:33:49;9.70;80.00
480;DHT22;226;48.606;9.096;2022-09-19T00:36:18;9.10;77.30
480;DHT22;226;48.606;9.096;2022-09-19T00:38:46;9.00;73.60
480;DHT22;226;48.606;9.096;2022-09-19T00:41:17;9.10;72.60
480;DHT22;226;48.606;9.096;2022-09-19T00:43:51;8.90;71.20
480;DHT22;226;48.606;9.096;2022-09-19T00:46:21;8.90;73.50
480;DHT22;226;48.606;9.096;2022-09-19T00:48:55;9.90;74.40
480;DHT22;226;48.606;9.096;2022-09-19T00:51:29;8.90;75.30
480;DHT22;226;48.606;9.096;2022-09-19T00:54:00;8.80;75.40
480;DHT22;226;48.606;9.096;2022-09-19T00:56:29;9.00;75.90
480;DHT22;226;48.606;9.096;2022-09-19T00:58:58;9.40;76.40
480;DHT22;226;48.606;9.096;2022-09-19T01:01:28;9.10;73.90
480;DHT22;226;48.606;9.096;2022-09-19T01:03:58;9.00;72.70
480;DHT22;226;48.606;9.096;2022-09-19T01:06:40;10.40;71.10
480;DHT22;226;48.606;9.096;2022-09-19T01:09:26;9.40;72.60
480;DHT22;226;48.606;9.096;2022-09-19T01:15:17;8.80;73.10
480;DHT22;226;48.606;9.096;2022-09-19T01:17:49;9.00;74.90
480;DHT22;226;48.606;9.096;2022-09-19T01:23:34;8.60;76.00
480;DHT22;226;48.606;9.096;2022-09-19T01:26:18;8.50;76.30
480;DHT22;226;48.606;9.096;2022-09-19T01:28:52;8.50;76.70
480;DHT22;226;48.606;9.096;2022-09-19T01:31:24;8.50;77.90
480;DHT22;226;48.606;9.096;2022-09-19T01:33:57;8.30;77.40
480;DHT22;226;48.606;9.096;2022-09-19T01:36:34;8.50;78.10
480;DHT22;226;48.606;9.096;2022-09-19T01:39:04;8.40;78.60
480;DHT22;226;48.606;9.096;2022-09-19T01:41:34;8.10;77.70
480;DHT22;226;48.606;9.096;2022-09-19T01:44:05;8.10;77.20
480;DHT22;226;48.606;9.096;2022-09-19T01:46:51;8.30;94.70
480;DHT22;226;48.606;9.096;2022-09-19T01:49:31;8.30;79.40
480;DHT22;226;48.606;9.096;2022-09-19T01:52:13;8.00;79.10
480;DHT22;226;48.606;9.096;2022-09-19T01:54:50;7.90;79.60
480;DHT22;226;48.606;9.096;2022-09-19T01:57:29;8.00;75.30
480;DHT22;226;48.606;9.096;2022-09-19T02:00:09;7.80;92.90
480;DHT22;226;48.606;9.096;2022-09-19T02:02:46;7.90;74.10
480;DHT22;226;48.606;9.096;2022-09-19T02:07:51;7.70;72.00
480;DHT22;226;48.606;9.096;2022-09-19T02:10:26;7.30;74.20
480;DHT22;226;48.606;9.096;2022-09-19T02:12:57;7.10;75.70
480;DHT22;226;48.606;9.096;2022-09-19T02:15:29;7.40;77.50
480;DHT22;226;48.606;9.096;2022-09-19T02:18:02;7.20;77.00
480;DHT22;226;48.606;9.096;2022-09-19T02:20:33;7.10;79.00
480;DHT22;226;48.606;9.096;2022-09-19T02:23:08;6.90;80.60
480;DHT22;226;48.606;9.096;2022-09-19T02:25:40;7.10;81.70
480;DHT22;226;48.606;9.096;2022-09-19T02:28:10;7.00;81.10
480;DHT22;226;48.606;9.096;2022-09-19T02:30:41;7.00;81.10
480;DHT22;226;48.606;9.096;2022-09-19T02:33:10;7.30;82.90
480;DHT22;226;48.606;9.096;2022-09-19T02:35:42;7.50;88.00
480;DHT22;226;48.606;9.096;2022-09-19T02:38:20;7.00;79.10
480;DHT22;226;48.606;9.096;2022-09-19T02:40:54;7.00;79.30
480;DHT22;226;48.606;9.096;2022-09-19T02:43:31;7.00;80.00
480;DHT22;226;48.606;9.096;2022-09-19T02:48:41;6.40;76.70
480;DHT22;226;48.606;9.096;2022-09-19T02:51:13;7.10;79.30
480;DHT22;226;48.606;9.096;2022-09-19T02:53:46;7.10;79.30
480;DHT22;226;48.606;9.096;2022-09-19T02:56:16;7.20;78.30
480;DHT22;226;48.606;9.096;2022-09-19T02:58:49;7.20;78.90
480;DHT22;226;48.606;9.096;2022-09-19T03:01:24;7.10;83.40
480;DHT22;226;48.606;9.096;2022-09-19T03:03:56;7.60;85.70
480;DHT22;226;48.606;9.096;2022-09-19T03:06:47;7.20;78.40
480;DHT22;226;48.606;9.096;2022-09-19T03:09:20;7.20;77.70
480;DHT22;226;48.606;9.096;2022-09-19T03:11:54;7.20;76.60
480;DHT22;226;48.606;9.096;2022-09-19T03:14:24;7.30;87.80
480;DHT22;226;48.606;9.096;2022-09-19T03:16:55;7.20;76.70
480;DHT22;226;48.606;9.096;2022-09-19T03:19:24;7.30;76.90
480;DHT22;226;48.606;9.096;2022-09-19T03:21:53;7.20;76.60
480;DHT22;226;48.606;9.096;2022-09-19T03:24:22;8.70;80.00
480;DHT22;226;48.606;9.096;2022-09-19T03:26:50;7.20;78.30
480;DHT22;226;48.606;9.096;2022-09-19T03:29:18;7.30;77.80
480;DHT22;226;48.606;9.096;2022-09-19T03:31:46;7.30;78.20
480;DHT22;226;48.606;9.096;2022-09-19T03:34:18;7.30;80.10
480;DHT22;226;48.606;9.096;2022-09-19T03:36:47;7.50;78.50
480;DHT22;226;48.606;9.096;2022-09-19T03:39:15;7.30;78.30
480;DHT22;226;48.606;9.096;2022-09-19T03:41:43;7.30;80.10
480;DHT22;226;48.606;9.096;2022-09-19T03:44:11;7.10;80.50
480;DHT22;226;48.606;9.096;2022-09-19T03:46:39;7.40;75.40
480;DHT22;226;48.606;9.096;2022-09-19T03:49:07;8.00;76.60
480;DHT22;226;48.606;9.096;2022-09-19T03:51:37;7.40;76.30
480;DHT22;226;48.606;9.096;2022-09-19T03:54:05;7.40;75.60
480;DHT22;226;48.606;9.096;2022-09-19T03:56:33;7.60;75.90
480;DHT22;226;48.606;9.096;2022-09-19T03:59:01;7.40;76.10
480;DHT22;226;48.606;9.096;2022-09-19T04:01:29;7.40;76.40
480;DHT22;226;48.606;9.096;2022-09-19T04:03:57;7.40;78.20
480;DHT22;226;48.606;9.096;2022-09-19T04:06:25;7.40;79.50
480;DHT22;226;48.606;9.096;2022-09-19T04:08:54;8.30;77.40
480;DHT22;226;48.606;9.096;2022-09-19T04:11:22;7.50;74.80
480;DHT22;226;48.606;9.096;2022-09-19T04:13:50;7.50;74.70
480;DHT22;226;48.606;9.096;2022-09-19T04:16:19;8.20;74.50
480;DHT22;226;48.606;9.096;2022-09-19T04:18:47;7.60;74.60
480;DHT22;226;48.606;9.096;2022-09-19T04:21:17;7.60;75.10
480;DHT22;226;48.606;9.096;2022-09-19T04:23:45;7.60;73.30
480;DHT22;226;48.606;9.096;2022-09-19T04:26:14;7.60;74.20
480;DHT22;226;48.606;9.096;2022-09-19T04:28:43;7.50;74.70
480;DHT22;226;48.606;9.096;2022-09-19T04:31:11;7.60;74.20
480;DHT22;226;48.606;9.096;2022-09-19T04:33:40;8.40;75.90
480;DHT22;226;48.606;9.096;2022-09-19T04:36:08;8.00;71.40
480;DHT22;226;48.606;9.096;2022-09-19T04:38:36;8.90;75.80
480;DHT22;226;48.606;9.096;2022-09-19T04:41:04;7.70;70.60
480;DHT22;226;48.606;9.096;2022-09-19T04:43:34;7.70;71.80
480;DHT22;226;48.606;9.096;2022-09-19T04:46:03;8.30;69.50
480;DHT22;226;48.606;9.096;2022-09-19T04:48:33;7.90;69.80
480;DHT22;226;48.606;9.096;2022-09-19T04:51:01;7.90;92.10
480;DHT22;226;48.606;9.096;2022-09-19T04:53:31;7.80;73.60
480;DHT22;226;48.606;9.096;2022-09-19T04:56:05;8.30;74.00
480;DHT22;226;48.606;9.096;2022-09-19T04:58:34;8.70;72.80
480;DHT22;226;48.606;9.096;2022-09-19T05:01:04;8.10;73.10
480;DHT22;226;48.606;9.096;2022-09-19T05:03:32;8.10;73.30
480;DHT22;226;48.606;9.096;2022-09-19T05:06:02;8.20;76.60
480;DHT22;226;48.606;9.096;2022-09-19T05:08:33;8.40;76.60
480;DHT22;226;48.606;9.096;2022-09-19T05:11:04;8.40;69.80
480;DHT22;226;48.606;9.096;2022-09-19T05:13:35;8.40;69.80
480;DHT22;226;48.606;9.096;2022-09-19T05:16:05;8.40;71.60
480;DHT22;226;48.606;9.096;2022-09-19T05:18:33;8.90;71.80
480;DHT22;226;48.606;9.096;2022-09-19T05:21:06;8.50;72.90
480;DHT22;226;48.606;9.096;2022-09-19T05:23:35;8.90;74.40
480;DHT22;226;48.606;9.096;2022-09-19T05:26:05;8.50;66.80
480;DHT22;226;48.606;9.096;2022-09-19T05:28:35;8.50;60.70
480;DHT22;226;48.606;9.096;2022-09-19T05:31:04;8.60;61.60
480;DHT22;226;48.606;9.096;2022-09-19T05:33:33;8.50;62.00
480;DHT22;226;48.606;9.096;2022-09-19T05:36:03;9.50;63.60
480;DHT22;226;48.606;9.096;2022-09-19T05:38:32;8.50;65.70
480;DHT22;226;48.606;9.096;2022-09-19T05:41:01;8.70;67.50
480;DHT22;226;48.606;9.096;2022-09-19T05:43:30;8.70;66.10
480;DHT22;226;48.606;9.096;2022-09-19T05:46:00;9.20;62.20
480;DHT22;226;48.606;9.096;2022-09-19T05:48:28;8.90;84.20
480;DHT22;226;48.606;9.096;2022-09-19T05:50:56;8.80;64.40
480;DHT22;226;48.606;9.096;2022-09-19T05:53:24;9.10;62.70
480;DHT22;226;48.606;9.096;2022-09-19T05:56:09;8.90;61.50
480;DHT22;226;48.606;9.096;2022-09-19T05:58:37;8.90;61.30
480;DHT22;226;48.606;9.096;2022-09-19T06:01:08;9.10;60.40
480;DHT22;226;48.606;9.096;2022-09-19T06:03:37;9.80;61.70
480;DHT22;226;48.606;9.096;2022-09-19T06:06:07;9.10;59.90
480;DHT22;226;48.606;9.096;2022-09-19T06:08:38;9.10;59.50
480;DHT22;226;48.606;9.096;2022-09-19T06:11:07;9.20;58.40
480;DHT22;226;48.606;9.096;2022-09-19T06:13:35;9.20;59.60
480;DHT22;226;48.606;9.096;2022-09-19T06:16:23;9.20;60.10
480;DHT22;226;48.606;9.096;2022-09-19T06:18:50;9.80;60.40
480;DHT22;226;48.606;9.096;2022-09-19T06:21:18;9.50;58.80
480;DHT22;226;48.606;9.096;2022-09-19T06:23:46;9.40;56.30
480;DHT22;226;48.606;9.096;2022-09-19T06:26:14;9.50;56.20
480;DHT22;226;48.606;9.096;2022-09-19T06:28:42;9.60;57.50
480;DHT22;226;48.606;9.096;2022-09-19T06:31:13;9.60;54.80
480;DHT22;226;48.606;9.096;2022-09-19T06:36:11;9.70;52.40
480;DHT22;226;48.606;9.096;2022-09-19T06:38:40;9.70;54.70
480;DHT22;226;48.606;9.096;2022-09-19T06:41:09;9.70;53.40
480;DHT22;226;48.606;9.096;2022-09-19T06:43:37;10.10;53.20
480;DHT22;226;48.606;9.096;2022-09-19T06:46:05;9.60;56.00
480;DHT22;226;48.606;9.096;2022-09-19T06:48:36;9.90;76.60
480;DHT22;226;48.606;9.096;2022-09-19T06:51:05;9.80;54.00
480;DHT22;226;48.606;9.096;2022-09-19T06:53:33;9.70;54.90
480;DHT22;226;48.606;9.096;2022-09-19T06:56:01;9.90;76.90
480;DHT22;226;48.606;9.096;2022-09-19T06:58:29;11.70;55.70
480;DHT22;226;48.606;9.096;2022-09-19T07:00:59;9.70;55.60
480;DHT22;226;48.606;9.096;2022-09-19T07:03:28;9.60;56.30
480;DHT22;226;48.606;9.096;2022-09-19T07:05:57;9.80;57.30
480;DHT22;226;48.606;9.096;2022-09-19T07:08:27;9.90;57.80
480;DHT22;226;48.606;9.096;2022-09-19T07:10:55;9.90;55.40
480;DHT22;226;48.606;9.096;2022-09-19T07:13:23;8.50;56.50
480;DHT22;226;48.606;9.096;2022-09-19T07:15:57;9.90;55.00
480;DHT22;226;48.606;9.096;2022-09-19T07:18:27;10.00;57.40
480;DHT22;226;48.606;9.096;2022-09-19T07:20:55;10.10;53.40
480;DHT22;226;48.606;9.096;2022-09-19T07:23:22;10.10;53.10
480;DHT22;226;48.606;9.096;2022-09-19T07:25:53;10.10;52.90
480;DHT22;226;48.606;9.096;2022-09-19T07:28:23;10.20;52.60
480;DHT22;226;48.606;9.096;2022-09-19T07:30:51;10.20;52.50
480;DHT22;226;48.606;9.096;2022-09-19T07:33:20;11.00;52.40
480;DHT22;226;48.606;9.096;2022-09-19T07:35:52;10.30;54.10
480;DHT22;226;48.606;9.096;2022-09-19T07:38:22;10.30;51.20
480;DHT22;226;48.606;9.096;2022-09-19T07:40:52;10.50;50.00
480;DHT22;226;48.606;9.096;2022-09-19T07:43:21;11.20;51.70
480;DHT22;226;48.606;9.096;2022-09-19T07:45:50;10.60;50.90
480;DHT22;226;48.606;9.096;2022-09-19T07:48:19;10.90;50.60
480;DHT22;226;48.606;9.096;2022-09-19T07:50:48;10.90;50.00
480;DHT22;226;48.606;9.096;2022-09-19T07:53:21;10.90;50.80
480;DHT22;226;48.606;9.096;2022-09-19T07:55:53;10.90;46.90
480;DHT22;226;48.606;9.096;2022-09-19T07:58:23;10.90;49.10
480;DHT22;226;48.606;9.096;2022-09-19T08:00:51;10.90;46.40
480;DHT22;226;48.606;9.096;2022-09-19T08:03:21;10.90;47.90
480;DHT22;226;48.606;9.096;2022-09-19T08:05:50;10.80;49.70
480;DHT22;226;48.606;9.096;2022-09-19T08:08:20;10.90;50.80
480;DHT22;226;48.606;9.096;2022-09-19T08:10:49;10.80;51.40
480;DHT22;226;48.606;9.096;2022-09-19T08:13:18;10.90;53.80
480;DHT22;226;48.606;9.096;2022-09-19T08:15:48;11.10;50.30
480;DHT22;226;48.606;9.096;2022-09-19T08:18:17;11.30;52.00
480;DHT22;226;48.606;9.096;2022-09-19T08:20:45;11.30;48.40
480;DHT22;226;48.606;9.096;2022-09-19T08:23:16;11.50;51.70
480;DHT22;226;48.606;9.096;2022-09-19T08:25:45;11.90;50.30
480;DHT22;226;48.606;9.096;2022-09-19T08:28:14;11.60;51.00
480;DHT22;226;48.606;9.096;2022-09-19T08:30:44;11.30;45.30
480;DHT22;226;48.606;9.096;2022-09-19T08:33:14;11.40;48.60
480;DHT22;226;48.606;9.096;2022-09-19T08:35:42;11.30;50.40
480;DHT22;226;48.606;9.096;2022-09-19T08:38:12;11.40;51.50
480;DHT22;226;48.606;9.096;2022-09-19T08:40:51;11.20;53.60
480;DHT22;226;48.606;9.096;2022-09-19T08:43:28;11.40;52.00
480;DHT22;226;48.606;9.096;2022-09-19T08:46:13;11.60;52.50
480;DHT22;226;48.606;9.096;2022-09-19T08:48:53;11.50;43.50
480;DHT22;226;48.606;9.096;2022-09-19T08:51:26;11.60;44.40
480;DHT22;226;48.606;9.096;2022-09-19T08:53:58;11.50;43.80
480;DHT22;226;48.606;9.096;2022-09-19T08:56:29;11.80;42.20
480;DHT22;226;48.606;9.096;2022-09-19T08:59:00;11.70;42.50
480;DHT22;226;48.606;9.096;2022-09-19T09:01:33;12.00;41.70
480;DHT22;226;48.606;9.096;2022-09-19T09:04:14;12.10;40.50
480;DHT22;226;48.606;9.096;2022-09-19T09:06:55;12.00;40.10
480;DHT22;226;48.606;9.096;2022-09-19T09:09:35;12.60;41.50
480;DHT22;226;48.606;9.096;2022-09-19T09:12:14;12.00;38.10
480;DHT22;226;48.606;9.096;2022-09-19T09:14:53;12.20;40.40
480;DHT22;226;48.606;9.096;2022-09-19T09:17:52;12.70;40.40
480;DHT22;226;48.606;9.096;2022-09-19T09:20:30;12.40;37.20
480;DHT22;226;48.606;9.096;2022-09-19T09:23:06;12.90;39.50
480;DHT22;226;48.606;9.096;2022-09-19T09:25:39;12.40;36.80
480;DHT22;226;48.606;9.096;2022-09-19T09:28:13;12.10;37.20
480;DHT22;226;48.606;9.096;2022-09-19T09:30:46;11.90;39.40
480;DHT22;226;48.606;9.096;2022-09-19T09:33:19;11.90;40.30
480;DHT22;226;48.606;9.096;2022-09-19T09:35:54;12.30;37.90
480;DHT22;226;48.606;9.096;2022-09-19T09:38:29;12.10;37.20
480;DHT22;226;48.606;9.096;2022-09-19T09:41:04;12.40;37.30
480;DHT22;226;48.606;9.096;2022-09-19T09:44:00;12.50;37.90
480;DHT22;226;48.606;9.096;2022-09-19T09:46:49;13.60;36.30
480;DHT22;226;48.606;9.096;2022-09-19T09:49:23;12.70;33.50
480;DHT22;226;48.606;9.096;2022-09-19T09:52:06;12.70;35.80
480;DHT22;226;48.606;9.096;2022-09-19T09:54:53;12.90;35.10
480;DHT22;226;48.606;9.096;2022-09-19T09:57:44;12.90;34.60
480;DHT22;226;48.606;9.096;2022-09-19T10:00:20;12.70;31.70
480;DHT22;226;48.606;9.096;2022-09-19T10:03:14;12.50;55.90
480;DHT22;226;48.606;9.096;2022-09-19T10:06:08;13.40;35.70
480;DHT22;226;48.606;9.096;2022-09-19T10:08:43;13.90;35.50
480;DHT22;226;48.606;9.096;2022-09-19T10:11:16;12.30;34.90
480;DHT22;226;48.606;9.096;2022-09-19T10:14:04;12.50;36.00
480;DHT22;226;48.606;9.096;2022-09-19T10:16:35;13.50;37.00
480;DHT22;226;48.606;9.096;2022-09-19T10:19:09;12.50;35.80
480;DHT22;226;48.606;9.096;2022-09-19T10:21:41;12.60;36.10
480;DHT22;226;48.606;9.096;2022-09-19T10:24:40;12.70;37.40
480;DHT22;226;48.606;9.096;2022-09-19T10:27:12;13.00;32.60
480;DHT22;226;48.606;9.096;2022-09-19T10:32:22;13.20;30.10
480;DHT22;226;48.606;9.096;2022-09-19T10:34:51;14.60;34.50
480;DHT22;226;48.606;9.096;2022-09-19T10:37:22;13.80;32.00
480;DHT22;226;48.606;9.096;2022-09-19T10:39:58;13.80;51.10
480;DHT22;226;48.606;9.096;2022-09-19T10:42:34;14.10;30.60
480;DHT22;226;48.606;9.096;2022-09-19T10:45:19;13.90;30.20
480;DHT22;226;48.606;9.096;2022-09-19T10:47:58;13.60;28.90
480;DHT22;226;48.606;9.096;2022-09-19T10:50:28;13.60;28.60
480;DHT22;226;48.606;9.096;2022-09-19T10:53:03;13.60;30.50
480;DHT22;226;48.606;9.096;2022-09-19T10:55:34;13.50;31.60
480;DHT22;226;48.606;9.096;2022-09-19T10:58:05;13.70;32.00
480;DHT22;226;48.606;9.096;2022-09-19T11:00:48;13.40;35.80
480;DHT22;226;48.606;9.096;2022-09-19T11:03:19;13.50;37.70
480;DHT22;226;48.606;9.096;2022-09-19T11:06:05;13.40;36.20
480;DHT22;226;48.606;9.096;2022-09-19T11:08:39;13.10;34.40
480;DHT22;226;48.606;9.096;2022-09-19T11:11:21;12.90;39.50
480;DHT22;226;48.606;9.096;2022-09-19T11:14:07;14.20;43.60
480;DHT22;226;48.606;9.096;2022-09-19T11:16:38;13.00;43.00
480;DHT22;226;48.606;9.096;2022-09-19T11:19:19;13.20;46.80
480;DHT22;226;48.606;9.096;2022-09-19T11:24:48;13.40;41.10
480;DHT22;226;48.606;9.096;2022-09-19T11:27:26;13.90;41.40
480;DHT22;226;48.606;9.096;2022-09-19T11:30:04;14.00;53.80
480;DHT22;226;48.606;9.096;2022-09-19T11:33:02;14.60;37.40
480;DHT22;226;48.606;9.096;2022-09-19T11:35:38;14.20;39.40
480;DHT22;226;48.606;9.096;2022-09-19T11:38:23;14.10;38.10
480;DHT22;226;48.606;9.096;2022-09-19T11:41:26;14.20;31.60
480;DHT22;226;48.606;9.096;2022-09-19T11:44:11;15.30;32.80
480;DHT22;226;48.606;9.096;2022-09-19T11:46:49;14.40;38.40
480;DHT22;226;48.606;9.096;2022-09-19T11:49:46;14.40;30.20
480;DHT22;226;48.606;9.096;2022-09-19T11:52:23;14.20;32.10
480;DHT22;226;48.606;9.096;2022-09-19T11:55:06;14.60;31.20
480;DHT22;226;48.606;9.096;2022-09-19T11:57:41;14.40;31.60
480;DHT22;226;48.606;9.096;2022-09-19T12:00:16;14.20;29.70
480;DHT22;226;48.606;9.096;2022-09-19T12:03:15;14.20;30.20
480;DHT22;226;48.606;9.096;2022-09-19T12:06:00;14.40;26.70
480;DHT22;226;48.606;9.096;2022-09-19T12:08:39;14.90;30.00
480;DHT22;226;48.606;9.096;2022-09-19T12:11:15;14.70;23.00
480;DHT22;226;48.606;9.096;2022-09-19T12:13:48;14.60;24.20
480;DHT22;226;48.606;9.096;2022-09-19T12:16:34;15.20;25.10
480;DHT22;226;48.606;9.096;2022-09-19T12:19:08;14.30;25.10
480;DHT22;226;48.606;9.096;2022-09-19T12:21:41;14.10;29.90
480;DHT22;226;48.606;9.096;2022-09-19T12:24:14;14.90;30.40
480;DHT22;226;48.606;9.096;2022-09-19T12:27:03;13.60;32.20
480;DHT22;226;48.606;9.096;2022-09-19T12:29:41;13.40;37.30
480;DHT22;226;48.606;9.096;2022-09-19T12:32:14;13.20;33.80
480;DHT22;226;48.606;9.096;2022-09-19T12:34:49;13.20;39.50
480;DHT22;226;48.606;9.096;2022-09-19T12:37:22;13.30;42.00
480;DHT22;226;48.606;9.096;2022-09-19T12:40:21;13.80;62.10
480;DHT22;226;48.606;9.096;2022-09-19T12:42:58;13.80;42.80
480;DHT22;226;48.606;9.096;2022-09-19T12:45:35;14.30;39.50
480;DHT22;226;48.606;9.096;2022-09-19T12:48:11;14.90;44.70
480;DHT22;226;48.606;9.096;2022-09-19T12:50:49;15.40;34.20
480;DHT22;226;48.606;9.096;2022-09-19T12:53:26;15.40;33.90
480;DHT22;226;48.606;9.096;2022-09-19T12:56:04;16.40;33.40
480;DHT22;226;48.606;9.096;2022-09-19T12:58:41;15.70;34.30
480;DHT22;226;48.606;9.096;2022-09-19T13:01:19;15.00;33.80
480;DHT22;226;48.606;9.096;2022-09-19T13:03:52;15.20;33.90
480;DHT22;226;48.606;9.096;2022-09-19T13:06:26;14.80;33.50
480;DHT22;226;48.606;9.096;2022-09-19T13:09:00;14.60;33.80
480;DHT22;226;48.606;9.096;2022-09-19T13:11:33;14.40;31.40
480;DHT22;226;48.606;9.096;2022-09-19T13:14:12;15.10;34.20
480;DHT22;226;48.606;9.096;2022-09-19T13:16:44;14.70;33.40
480;DHT22;226;48.606;9.096;2022-09-19T13:19:31;14.90;34.80
480;DHT22;226;48.606;9.096;2022-09-19T13:22:20;14.80;27.90
480;DHT22;226;48.606;9.096;2022-09-19T13:25:12;14.90;29.00
480;DHT22;226;48.606;9.096;2022-09-19T13:27:43;15.00;27.60
480;DHT22;226;48.606;9.096;2022-09-19T13:30:40;15.20;48.40
480;DHT22;226;48.606;9.096;2022-09-19T13:33:25;15.20;27.50
480;DHT22;226;48.606;9.096;2022-09-19T13:35:54;15.30;29.80
480;DHT22;226;48.606;9.096;2022-09-19T13:38:36;15.30;43.10
480;DHT22;226;48.606;9.096;2022-09-19T13:41:06;15.20;26.40
480;DHT22;226;48.606;9.096;2022-09-19T13:43:44;15.20;25.90
480;DHT22;226;48.606;9.096;2022-09-19T13:46:19;15.40;27.10
480;DHT22;226;48.606;9.096;2022-09-19T13:48:53;15.60;26.30
480;DHT22;226;48.606;9.096;2022-09-19T13:51:37;15.90;27.10
480;DHT22;226;48.606;9.096;2022-09-19T13:54:32;16.40;24.80
480;DHT22;226;48.606;9.096;2022-09-19T13:57:13;16.00;23.50
480;DHT22;226;48.606;9.096;2022-09-19T13:59:49;16.70;23.00
480;DHT22;226;48.606;9.096;2022-09-19T14:02:24;15.70;21.90
480;DHT22;226;48.606;9.096;2022-09-19T14:05:01;15.80;24.20
480;DHT22;226;48.606;9.096;2022-09-19T14:07:36;15.80;21.30
480;DHT22;226;48.606;9.096;2022-09-19T14:10:28;16.10;23.90
480;DHT22;226;48.606;9.096;2022-09-19T14:13:01;16.60;22.30
480;DHT22;226;48.606;9.096;2022-09-19T14:16:03;16.30;22.40
480;DHT22;226;48.606;9.096;2022-09-19T14:18:53;16.40;20.60
480;DHT22;226;48.606;9.096;2022-09-19T14:21:55;16.20;19.60
480;DHT22;226;48.606;9.096;2022-09-19T14:24:45;16.40;20.50
480;DHT22;226;48.606;9.096;2022-09-19T14:27:26;16.60;19.60
480;DHT22;226;48.606;9.096;2022-09-19T14:30:02;16.80;32.70
480;DHT22;226;48.606;9.096;2022-09-19T14:32:33;16.90;20.60
480;DHT22;226;48.606;9.096;2022-09-19T14:38:22;17.40;16.00
480;DHT22;226;48.606;9.096;2022-09-19T14:41:01;17.50;16.10
480;DHT22;226;48.606;9.096;2022-09-19T14:46:56;16.70;16.40
480;DHT22;226;48.606;9.096;2022-09-19T14:49:30;16.60;20.40
480;DHT22;226;48.606;9.096;2022-09-19T14:52:01;16.30;19.10
480;DHT22;226;48.606;9.096;2022-09-19T14:54:37;16.80;18.20
480;DHT22;226;48.606;9.096;2022-09-19T14:57:13;17.30;16.00
480;DHT22;226;48.606;9.096;2022-09-19T14:59:41;17.30;17.40
480;DHT22;226;48.606;9.096;2022-09-19T15:02:28;17.00;15.80
480;DHT22;226;48.606;9.096;2022-09-19T15:04:59;16.70;18.80
480;DHT22;226;48.606;9.096;2022-09-19T15:07:29;16.70;18.00
480;DHT22;226;48.606;9.096;2022-09-19T15:09:59;16.00;35.60
480;DHT22;226;48.606;9.096;2022-09-19T15:12:29;16.10;19.40
480;DHT22;226;48.606;9.096;2022-09-19T15:14:58;16.80;16.20
480;DHT22;226;48.606;9.096;2022-09-19T15:17:28;18.40;17.40
480;DHT22;226;48.606;9.096;2022-09-19T15:19:59;19.70;20.30
480;DHT22;226;48.606;9.096;2022-09-19T15:22:41;19.70;10.90
480;DHT22;226;48.606;9.096;2022-09-19T15:25:23;21.00;9.50
480;DHT22;226;48.606;9.096;2022-09-19T15:27:54;20.40;13.40
480;DHT22;226;48.606;9.096;2022-09-19T15:30:24;19.20;13.90
480;DHT22;226;48.606;9.096;2022-09-19T15:32:55;19.20;14.10
480;DHT22;226;48.606;9.096;2022-09-19T15:35:24;18.70;15.20
480;DHT22;226;48.606;9.096;2022-09-19T15:37:56;18.30;17.00
480;DHT22;226;48.606;9.096;2022-09-19T15:40:32;17.10;16.00
480;DHT22;226;48.606;9.096;2022-09-19T15:43:01;17.50;17.60
480;DHT22;226;48.606;9.096;2022-09-19T15:45:39;17.40;19.30
480;DHT22;226;48.606;9.096;2022-09-19T15:48:14;16.60;15.50
480;DHT22;226;48.606;9.096;2022-09-19T15:50:45;16.20;18.00
480;DHT22;226;48.606;9.096;2022-09-19T15:53:17;16.10;18.30
480;DHT22;226;48.606;9.096;2022-09-19T15:55:57;16.30;19.00
480;DHT22;226;48.606;9.096;2022-09-19T15:58:29;15.10;20.00
480;DHT22;226;48.606;9.096;2022-09-19T16:01:08;15.00;23.10
480;DHT22;226;48.606;9.096;2022-09-19T16:03:40;15.50;22.90
480;DHT22;226;48.606;9.096;2022-09-19T16:06:23;14.70;23.40
480;DHT22;226;48.606;9.096;2022-09-19T16:09:10;14.50;25.50
480;DHT22;226;48.606;9.096;2022-09-19T16:11:43;14.50;24.30
480;DHT22;226;48.606;9.096;2022-09-19T16:14:17;14.60;27.00
480;DHT22;226;48.606;9.096;2022-09-19T16:16:45;14.70;26.40
480;DHT22;226;48.606;9.096;2022-09-19T16:19:42;14.50;26.80
480;DHT22;226;48.606;9.096;2022-09-19T16:22:12;14.50;24.60
480;DHT22;226;48.606;9.096;2022-09-19T16:24:44;14.80;26.60
480;DHT22;226;48.606;9.096;2022-09-19T16:27:14;14.80;25.10
480;DHT22;226;48.606;9.096;2022-09-19T16:29:47;14.60;26.90
480;DHT22;226;48.606;9.096;2022-09-19T16:32:17;14.50;26.20
480;DHT22;226;48.606;9.096;2022-09-19T16:34:50;14.70;26.20
480;DHT22;226;48.606;9.096;2022-09-19T16:37:33;14.50;25.90
480;DHT22;226;48.606;9.096;2022-09-19T16:40:05;14.10;43.00
480;DHT22;226;48.606;9.096;2022-09-19T16:42:35;14.10;27.20
480;DHT22;226;48.606;9.096;2022-09-19T16:45:15;14.60;29.00
480;DHT22;226;48.606;9.096;2022-09-19T16:47:44;14.10;28.50
480;DHT22;226;48.606;9.096;2022-09-19T16:50:15;14.10;50.80
480;DHT22;226;48.606;9.096;2022-09-19T16:52:46;14.00;30.00
480;DHT22;226;48.606;9.096;2022-09-19T16:55:22;14.20;31.50
480;DHT22;226;48.606;9.096;2022-09-19T16:57:55;14.00;29.90
480;DHT22;226;48.606;9.096;2022-09-19T17:00:24;13.90;34.60
480;DHT22;226;48.606;9.096;2022-09-19T17:02:52;14.10;35.50
480;DHT22;226;48.606;9.096;2022-09-19T17:05:22;13.20;37.70
480;DHT22;226;48.606;9.096;2022-09-19T17:07:52;13.90;39.30
480;DHT22;226;48.606;9.096;2022-09-19T17:10:22;13.50;35.00
480;DHT22;226;48.606;9.096;2022-09-19T17:12:53;13.70;35.70
480;DHT22;226;48.606;9.096;2022-09-19T17:15:34;13.30;35.00
480;DHT22;226;48.606;9.096;2022-09-19T17:18:03;13.30;35.50
480;DHT22;226;48.606;9.096;2022-09-19T17:20:31;13.30;34.40
480;DHT22;226;48.606;9.096;2022-09-19T17:22:59;13.20;35.60
480;DHT22;226;48.606;9.096;2022-09-19T17:25:34;13.10;33.30
480;DHT22;226;48.606;9.096;2022-09-19T17:28:05;13.00;36.80
480;DHT22;226;48.606;9.096;2022-09-19T17:30:33;12.90;35.00
480;DHT22;226;48.606;9.096;2022-09-19T17:33:01;12.90;36.10
480;DHT22;226;48.606;9.096;2022-09-19T17:35:30;13.00;37.30
480;DHT22;226;48.606;9.096;2022-09-19T17:37:58;13.00;36.90
480;DHT22;226;48.606;9.096;2022-09-19T17:40:27;12.90;37.00
480;DHT22;226;48.606;9.096;2022-09-19T17:43:02;12.90;37.10
480;DHT22;226;48.606;9.096;2022-09-19T17:45:32;12.90;37.90
480;DHT22;226;48.606;9.096;2022-09-19T17:48:01;12.80;38.30
480;DHT22;226;48.606;9.096;2022-09-19T17:50:29;12.80;39.90
480;DHT22;226;48.606;9.096;2022-09-19T17:52:57;12.80;40.10